sensor_id;sensor_type;location;lat;lon;timestamp;pressure;altitude;pressure_sealevel;temperature;humidity
79242;BME280;68670;48.720;9.118;2023-08-06T00:00:26;96146.41;;;14.01;92.23
79242;BME280;68670;48.720;9.118;2023-08-06T00:02:54;96154.41;;;13.97;92.10
79242;BME280;68670;48.720;9.118;2023-08-06T00:05:19;96145.00;;;14.08;91.07
79242;BME280;68670;48.720;9.118;2023-08-06T00:07:47;96143.38;;;13.97;91.44
79242;BME280;68670;48.720;9.118;2023-08-06T00:10:14;96146.97;;;13.98;91.59
79242;BME280;68670;48.720;9.118;2023-08-06T00:12:41;96137.31;;;14.00;91.13
79242;BME280;68670;48.720;9.118;2023-08-06T00:15:09;96140.06;;;14.05;90.48
79242;BME280;68670;48.720;9.118;2023-08-06T00:17:37;96132.63;;;14.01;90.74
79242;BME280;68670;48.720;9.118;2023-08-06T00:20:04;96136.84;;;13.88;91.50
79242;BME280;68670;48.720;9.118;2023-08-06T00:22:36;96142.06;;;13.90;90.73
79242;BME280;68670;48.720;9.118;2023-08-06T00:25:03;96145.63;;;13.95;89.35
79242;BME280;68670;48.720;9.118;2023-08-06T00:27:35;96145.63;;;13.95;89.03
79242;BME280;68670;48.720;9.118;2023-08-06T00:30:01;96136.50;;;14.00;88.07
79242;BME280;68670;48.720;9.118;2023-08-06T00:32:26;96143.34;;;14.07;87.40
79242;BME280;68670;48.720;9.118;2023-08-06T00:34:51;96141.69;;;14.06;86.99
79242;BME280;68670;48.720;9.118;2023-08-06T00:37:17;96139.53;;;13.98;87.61
79242;BME280;68670;48.720;9.118;2023-08-06T00:39:47;96135.13;;;13.97;87.45
79242;BME280;68670;48.720;9.118;2023-08-06T00:42:17;96126.38;;;13.90;87.90
79242;BME280;68670;48.720;9.118;2023-08-06T00:44:48;96119.22;;;13.89;87.92
79242;BME280;68670;48.720;9.118;2023-08-06T00:47:13;96125.28;;;13.86;87.33
79242;BME280;68670;48.720;9.118;2023-08-06T00:49:39;96110.44;;;13.87;87.00
79242;BME280;68670;48.720;9.118;2023-08-06T00:52:09;96106.50;;;13.98;84.83
79242;BME280;68670;48.720;9.118;2023-08-06T00:54:35;96106.81;;;13.92;85.86
79242;BME280;68670;48.720;9.118;2023-08-06T00:57:04;96107.69;;;13.82;87.17
79242;BME280;68670;48.720;9.118;2023-08-06T00:59:30;96100.97;;;13.98;84.26
79242;BME280;68670;48.720;9.118;2023-08-06T01:01:58;96099.94;;;13.94;84.30
79242;BME280;68670;48.720;9.118;2023-08-06T01:04:23;96106.25;;;13.95;84.27
79242;BME280;68670;48.720;9.118;2023-08-06T01:07:03;96103.28;;;13.86;85.77
79242;BME280;68670;48.720;9.118;2023-08-06T01:09:35;96101.66;;;13.75;86.60
79242;BME280;68670;48.720;9.118;2023-08-06T01:12:34;96103.13;;;13.62;87.69
79242;BME280;68670;48.720;9.118;2023-08-06T01:15:22;96107.25;;;13.60;89.10
79242;BME280;68670;48.720;9.118;2023-08-06T01:17:55;96109.75;;;13.51;88.90
79242;BME280;68670;48.720;9.118;2023-08-06T01:20:21;96103.19;;;13.42;89.23
79242;BME280;68670;48.720;9.118;2023-08-06T01:22:48;96099.06;;;13.39;90.03
79242;BME280;68670;48.720;9.118;2023-08-06T01:25:19;96103.53;;;13.25;90.51
79242;BME280;68670;48.720;9.118;2023-08-06T01:27:47;96107.91;;;13.11;91.84
79242;BME280;68670;48.720;9.118;2023-08-06T01:30:18;96098.56;;;13.02;92.27
79242;BME280;68670;48.720;9.118;2023-08-06T01:32:49;96099.69;;;13.01;91.89
79242;BME280;68670;48.720;9.118;2023-08-06T01:35:21;96105.16;;;13.01;91.65
79242;BME280;68670;48.720;9.118;2023-08-06T01:37:48;96093.63;;;13.09;91.18
79242;BME280;68670;48.720;9.118;2023-08-06T01:40:15;96100.22;;;13.03;92.15
79242;BME280;68670;48.720;9.118;2023-08-06T01:42:41;96098.03;;;13.05;92.09
79242;BME280;68670;48.720;9.118;2023-08-06T01:45:09;96098.03;;;13.05;91.67
79242;BME280;68670;48.720;9.118;2023-08-06T01:47:35;96089.28;;;12.93;91.34
79242;BME280;68670;48.720;9.118;2023-08-06T01:50:03;96085.69;;;12.82;92.19
79242;BME280;68670;48.720;9.118;2023-08-06T01:52:29;96088.19;;;12.78;92.21
79242;BME280;68670;48.720;9.118;2023-08-06T01:54:55;96092.56;;;12.85;91.08
79242;BME280;68670;48.720;9.118;2023-08-06T01:57:23;96093.66;;;12.99;89.57
79242;BME280;68670;48.720;9.118;2023-08-06T01:59:49;96081.28;;;12.96;89.72
79242;BME280;68670;48.720;9.118;2023-08-06T02:02:14;96081.56;;;12.95;89.80
79242;BME280;68670;48.720;9.118;2023-08-06T02:04:39;96073.84;;;13.02;88.49
79242;BME280;68670;48.720;9.118;2023-08-06T02:07:07;96076.59;;;13.02;88.83
79242;BME280;68670;48.720;9.118;2023-08-06T02:09:34;96065.84;;;13.05;88.27
79242;BME280;68670;48.720;9.118;2023-08-06T02:12:04;96065.91;;;12.95;88.96
79242;BME280;68670;48.720;9.118;2023-08-06T02:14:34;96065.09;;;12.95;88.81
79242;BME280;68670;48.720;9.118;2023-08-06T02:17:02;96059.06;;;12.83;89.76
79242;BME280;68670;48.720;9.118;2023-08-06T02:19:30;96049.97;;;12.87;89.38
79242;BME280;68670;48.720;9.118;2023-08-06T02:21:57;96042.84;;;12.81;89.40
79242;BME280;68670;48.720;9.118;2023-08-06T02:24:25;96044.22;;;12.78;88.78
79242;BME280;68670;48.720;9.118;2023-08-06T02:26:52;96035.16;;;12.73;89.24
79242;BME280;68670;48.720;9.118;2023-08-06T02:29:25;96036.50;;;12.81;88.79
79242;BME280;68670;48.720;9.118;2023-08-06T02:31:53;96023.88;;;12.90;87.72
79242;BME280;68670;48.720;9.118;2023-08-06T02:34:18;96023.06;;;12.74;88.69
79242;BME280;68670;48.720;9.118;2023-08-06T02:36:47;96014.00;;;12.78;87.17
79242;BME280;68670;48.720;9.118;2023-08-06T02:39:15;96022.78;;;12.86;87.04
79242;BME280;68670;48.720;9.118;2023-08-06T02:41:40;96007.94;;;12.76;86.64
79242;BME280;68670;48.720;9.118;2023-08-06T02:44:08;96002.44;;;12.76;87.13
79242;BME280;68670;48.720;9.118;2023-08-06T02:46:33;96004.94;;;12.73;88.29
79242;BME280;68670;48.720;9.118;2023-08-06T02:49:01;96010.69;;;12.76;87.10
79242;BME280;68670;48.720;9.118;2023-08-06T02:51:29;96003.00;;;12.73;86.91
79242;BME280;68670;48.720;9.118;2023-08-06T02:53:56;96002.47;;;12.71;87.34
79242;BME280;68670;48.720;9.118;2023-08-06T02:56:22;96002.16;;;12.78;86.42
79242;BME280;68670;48.720;9.118;2023-08-06T02:58:47;96004.94;;;12.68;86.96
79242;BME280;68670;48.720;9.118;2023-08-06T03:01:13;96000.25;;;12.68;86.78
79242;BME280;68670;48.720;9.118;2023-08-06T03:03:41;95990.38;;;12.72;86.53
79242;BME280;68670;48.720;9.118;2023-08-06T03:06:07;95990.97;;;12.64;86.96
79242;BME280;68670;48.720;9.118;2023-08-06T03:08:34;95983.56;;;12.55;89.29
79242;BME280;68670;48.720;9.118;2023-08-06T03:11:00;95987.69;;;12.47;90.83
79242;BME280;68670;48.720;9.118;2023-08-06T03:13:25;95987.13;;;12.40;90.99
79242;BME280;68670;48.720;9.118;2023-08-06T03:15:59;95979.72;;;12.35;90.34
79242;BME280;68670;48.720;9.118;2023-08-06T03:18:29;95977.84;;;12.31;91.27
79242;BME280;68670;48.720;9.118;2023-08-06T03:20:59;95978.38;;;12.28;91.14
79242;BME280;68670;48.720;9.118;2023-08-06T03:23:27;95973.44;;;12.25;91.50
79242;BME280;68670;48.720;9.118;2023-08-06T03:25:55;95973.44;;;12.25;90.95
79242;BME280;68670;48.720;9.118;2023-08-06T03:28:22;95979.22;;;12.28;91.36
79242;BME280;68670;48.720;9.118;2023-08-06T03:31:00;95967.69;;;12.31;91.20
79242;BME280;68670;48.720;9.118;2023-08-06T03:33:26;95981.66;;;12.35;91.88
79242;BME280;68670;48.720;9.118;2023-08-06T03:35:56;95975.59;;;12.38;90.96
79242;BME280;68670;48.720;9.118;2023-08-06T03:38:24;95980.53;;;12.56;88.71
79242;BME280;68670;48.720;9.118;2023-08-06T03:40:52;95978.88;;;12.65;88.28
79242;BME280;68670;48.720;9.118;2023-08-06T03:43:17;95969.47;;;12.82;88.23
79242;BME280;68670;48.720;9.118;2023-08-06T03:45:43;95971.06;;;12.98;86.32
79242;BME280;68670;48.720;9.118;2023-08-06T03:48:13;95977.69;;;12.92;87.44
79242;BME280;68670;48.720;9.118;2023-08-06T03:50:41;95968.31;;;12.98;87.29
79242;BME280;68670;48.720;9.118;2023-08-06T03:53:06;95971.00;;;13.18;85.33
79242;BME280;68670;48.720;9.118;2023-08-06T03:55:36;95962.63;;;13.38;83.74
79242;BME280;68670;48.720;9.118;2023-08-06T03:58:01;95970.88;;;13.38;84.12
79242;BME280;68670;48.720;9.118;2023-08-06T04:00:27;95972.00;;;13.37;84.32
79242;BME280;68670;48.720;9.118;2023-08-06T04:02:52;95976.72;;;13.32;83.99
79242;BME280;68670;48.720;9.118;2023-08-06T04:05:27;95966.50;;;13.32;84.03
79242;BME280;68670;48.720;9.118;2023-08-06T04:07:52;95972.28;;;13.36;84.16
79242;BME280;68670;48.720;9.118;2023-08-06T04:10:17;95972.28;;;13.36;84.00
79242;BME280;68670;48.720;9.118;2023-08-06T04:12:43;95969.50;;;13.41;84.00
79242;BME280;68670;48.720;9.118;2023-08-06T04:15:11;95973.63;;;13.43;84.37
79242;BME280;68670;48.720;9.118;2023-08-06T04:17:38;95982.22;;;13.32;85.20
79242;BME280;68670;48.720;9.118;2023-08-06T04:20:04;95979.16;;;13.33;84.61
79242;BME280;68670;48.720;9.118;2023-08-06T04:22:30;95989.66;;;13.31;85.30
79242;BME280;68670;48.720;9.118;2023-08-06T04:24:55;95986.91;;;13.31;85.53
79242;BME280;68670;48.720;9.118;2023-08-06T04:27:20;95988.56;;;13.27;86.16
79242;BME280;68670;48.720;9.118;2023-08-06T04:29:46;95992.41;;;13.31;85.23
79242;BME280;68670;48.720;9.118;2023-08-06T04:32:13;95980.88;;;13.24;85.67
79242;BME280;68670;48.720;9.118;2023-08-06T04:34:39;95986.91;;;13.31;86.18
79242;BME280;68670;48.720;9.118;2023-08-06T04:37:04;95994.09;;;13.22;86.31
79242;BME280;68670;48.720;9.118;2023-08-06T04:39:32;95993.00;;;13.18;86.82
79242;BME280;68670;48.720;9.118;2023-08-06T04:42:00;95992.69;;;13.25;86.06
79242;BME280;68670;48.720;9.118;2023-08-06T04:44:25;95994.09;;;13.22;86.36
79242;BME280;68670;48.720;9.118;2023-08-06T04:46:51;96008.38;;;13.24;86.32
79242;BME280;68670;48.720;9.118;2023-08-06T04:49:20;96001.22;;;13.28;86.30
79242;BME280;68670;48.720;9.118;2023-08-06T04:51:46;96008.31;;;13.34;85.84
79242;BME280;68670;48.720;9.118;2023-08-06T04:54:11;96005.03;;;13.32;85.82
79242;BME280;68670;48.720;9.118;2023-08-06T04:56:36;96010.78;;;13.36;86.08
79242;BME280;68670;48.720;9.118;2023-08-06T04:59:02;96011.09;;;13.29;86.98
79242;BME280;68670;48.720;9.118;2023-08-06T05:01:27;96016.59;;;13.29;87.06
79242;BME280;68670;48.720;9.118;2023-08-06T05:03:53;96012.50;;;13.27;87.37
79242;BME280;68670;48.720;9.118;2023-08-06T05:06:18;96004.22;;;13.32;87.45
79242;BME280;68670;48.720;9.118;2023-08-06T05:08:46;96009.94;;;13.40;86.51
79242;BME280;68670;48.720;9.118;2023-08-06T05:11:14;96005.28;;;13.36;86.46
79242;BME280;68670;48.720;9.118;2023-08-06T05:13:39;96002.78;;;13.44;86.33
79242;BME280;68670;48.720;9.118;2023-08-06T05:16:04;95996.16;;;13.45;85.05
79242;BME280;68670;48.720;9.118;2023-08-06T05:18:30;96005.53;;;13.39;85.68
79242;BME280;68670;48.720;9.118;2023-08-06T05:20:55;96001.13;;;13.43;85.34
79242;BME280;68670;48.720;9.118;2023-08-06T05:23:23;95994.84;;;13.33;85.77
79242;BME280;68670;48.720;9.118;2023-08-06T05:25:48;95997.81;;;13.41;84.90
79242;BME280;68670;48.720;9.118;2023-08-06T05:28:14;95997.81;;;13.41;84.36
79242;BME280;68670;48.720;9.118;2023-08-06T05:30:41;95993.97;;;13.42;85.91
79242;BME280;68670;48.720;9.118;2023-08-06T05:33:09;95991.72;;;13.55;83.88
79242;BME280;68670;48.720;9.118;2023-08-06T05:35:34;95995.00;;;13.62;84.75
79242;BME280;68670;48.720;9.118;2023-08-06T05:38:04;96012.34;;;13.57;85.99
79242;BME280;68670;48.720;9.118;2023-08-06T05:40:33;96009.88;;;13.56;85.09
79242;BME280;68670;48.720;9.118;2023-08-06T05:42:59;96016.38;;;13.70;84.10
79242;BME280;68670;48.720;9.118;2023-08-06T05:45:24;96016.88;;;13.77;83.46
79242;BME280;68670;48.720;9.118;2023-08-06T05:47:49;96011.94;;;13.74;83.81
79242;BME280;68670;48.720;9.118;2023-08-06T05:50:17;96018.53;;;13.78;83.60
79242;BME280;68670;48.720;9.118;2023-08-06T05:52:42;96023.22;;;13.77;83.01
79242;BME280;68670;48.720;9.118;2023-08-06T05:55:10;96020.13;;;13.89;81.61
79242;BME280;68670;48.720;9.118;2023-08-06T05:57:37;96023.66;;;13.95;81.36
79242;BME280;68670;48.720;9.118;2023-08-06T06:00:03;96022.34;;;13.87;82.02
79242;BME280;68670;48.720;9.118;2023-08-06T06:02:31;96029.75;;;13.92;82.00
79242;BME280;68670;48.720;9.118;2023-08-06T06:04:59;96028.41;;;13.84;81.12
79242;BME280;68670;48.720;9.118;2023-08-06T06:07:24;96028.97;;;13.81;83.26
79242;BME280;68670;48.720;9.118;2023-08-06T06:09:49;96031.13;;;13.89;81.96
79242;BME280;68670;48.720;9.118;2023-08-06T06:12:17;96031.41;;;13.93;82.13
79242;BME280;68670;48.720;9.118;2023-08-06T06:14:43;96032.22;;;13.93;81.49
79242;BME280;68670;48.720;9.118;2023-08-06T06:17:08;96034.97;;;13.93;83.17
79242;BME280;68670;48.720;9.118;2023-08-06T06:19:35;96033.84;;;13.94;82.78
79242;BME280;68670;48.720;9.118;2023-08-06T06:22:01;96036.09;;;13.87;82.78
79242;BME280;68670;48.720;9.118;2023-08-06T06:24:26;96037.22;;;13.86;83.47
79242;BME280;68670;48.720;9.118;2023-08-06T06:26:51;96044.34;;;13.87;83.37
79242;BME280;68670;48.720;9.118;2023-08-06T06:29:17;96042.19;;;13.79;83.62
79242;BME280;68670;48.720;9.118;2023-08-06T06:31:44;96051.03;;;13.76;83.72
79242;BME280;68670;48.720;9.118;2023-08-06T06:34:10;96049.09;;;13.76;83.76
79242;BME280;68670;48.720;9.118;2023-08-06T06:36:35;96061.50;;;13.74;84.38
79242;BME280;68670;48.720;9.118;2023-08-06T06:39:00;96056.28;;;13.72;85.00
79242;BME280;68670;48.720;9.118;2023-08-06T06:41:26;96064.78;;;13.76;86.23
79242;BME280;68670;48.720;9.118;2023-08-06T06:43:51;96062.56;;;13.83;84.35
79242;BME280;68670;48.720;9.118;2023-08-06T06:46:16;96063.66;;;13.82;84.87
79242;BME280;68670;48.720;9.118;2023-08-06T06:48:42;96065.59;;;13.82;83.79
79242;BME280;68670;48.720;9.118;2023-08-06T06:51:10;96060.34;;;13.80;84.13
79242;BME280;68670;48.720;9.118;2023-08-06T06:53:37;96067.50;;;13.81;84.08
79242;BME280;68670;48.720;9.118;2023-08-06T06:56:05;96064.78;;;13.76;83.97
79242;BME280;68670;48.720;9.118;2023-08-06T06:58:33;96062.06;;;13.71;84.71
79242;BME280;68670;48.720;9.118;2023-08-06T07:01:01;96068.69;;;13.65;86.40
79242;BME280;68670;48.720;9.118;2023-08-06T07:03:26;96067.06;;;13.64;85.94
79242;BME280;68670;48.720;9.118;2023-08-06T07:05:51;96060.53;;;13.50;87.17
79242;BME280;68670;48.720;9.118;2023-08-06T07:08:17;96061.38;;;13.40;89.36
79242;BME280;68670;48.720;9.118;2023-08-06T07:10:43;96059.47;;;13.35;89.58
79242;BME280;68670;48.720;9.118;2023-08-06T07:13:09;96059.19;;;13.37;88.93
79242;BME280;68670;48.720;9.118;2023-08-06T07:15:36;96078.16;;;13.33;89.82
79242;BME280;68670;48.720;9.118;2023-08-06T07:18:02;96063.31;;;13.34;89.90
79242;BME280;68670;48.720;9.118;2023-08-06T07:20:29;96068.00;;;13.34;90.18
79242;BME280;68670;48.720;9.118;2023-08-06T07:22:57;96071.28;;;13.36;89.24
79242;BME280;68670;48.720;9.118;2023-08-06T07:25:22;96072.38;;;13.35;89.74
79242;BME280;68670;48.720;9.118;2023-08-06T07:27:49;96078.22;;;13.28;90.21
79242;BME280;68670;48.720;9.118;2023-08-06T07:30:15;96081.53;;;13.25;90.76
79242;BME280;68670;48.720;9.118;2023-08-06T07:32:40;96082.63;;;13.29;90.56
79242;BME280;68670;48.720;9.118;2023-08-06T07:35:05;96072.72;;;13.28;89.94
79242;BME280;68670;48.720;9.118;2023-08-06T07:37:33;96075.50;;;13.18;90.92
79242;BME280;68670;48.720;9.118;2023-08-06T07:39:58;96077.66;;;13.26;90.08
79242;BME280;68670;48.720;9.118;2023-08-06T07:42:23;96069.38;;;13.36;89.91
79242;BME280;68670;48.720;9.118;2023-08-06T07:44:54;96069.38;;;13.36;90.05
79242;BME280;68670;48.720;9.118;2023-08-06T07:47:20;96066.84;;;13.50;90.73
79242;BME280;68670;48.720;9.118;2023-08-06T07:49:45;96065.41;;;13.63;88.10
79242;BME280;68670;48.720;9.118;2023-08-06T07:52:11;96064.25;;;13.69;89.02
79242;BME280;68670;48.720;9.118;2023-08-06T07:54:36;96068.13;;;13.68;87.96
79242;BME280;68670;48.720;9.118;2023-08-06T07:57:04;96071.69;;;13.68;86.60
79242;BME280;68670;48.720;9.118;2023-08-06T07:59:29;96072.03;;;13.62;86.33
79242;BME280;68670;48.720;9.118;2023-08-06T08:01:55;96062.63;;;13.68;88.08
79242;BME280;68670;48.720;9.118;2023-08-06T08:04:21;96071.94;;;13.77;86.78
79242;BME280;68670;48.720;9.118;2023-08-06T08:06:46;96069.41;;;13.86;86.98
79242;BME280;68670;48.720;9.118;2023-08-06T08:09:12;96071.28;;;13.95;85.62
79242;BME280;68670;48.720;9.118;2023-08-06T08:11:38;96073.53;;;13.88;85.55
79242;BME280;68670;48.720;9.118;2023-08-06T08:14:04;96077.31;;;13.97;85.33
79242;BME280;68670;48.720;9.118;2023-08-06T08:16:29;96070.75;;;13.93;85.88
79242;BME280;68670;48.720;9.118;2023-08-06T08:18:59;96075.69;;;13.96;86.75
79242;BME280;68670;48.720;9.118;2023-08-06T08:21:24;96071.81;;;13.97;86.18
79242;BME280;68670;48.720;9.118;2023-08-06T08:23:52;96075.09;;;13.99;85.03
79242;BME280;68670;48.720;9.118;2023-08-06T08:26:17;96075.16;;;13.94;85.66
79242;BME280;68670;48.720;9.118;2023-08-06T08:28:45;96067.44;;;13.96;86.54
79242;BME280;68670;48.720;9.118;2023-08-06T08:31:13;96069.72;;;13.79;86.81
79242;BME280;68670;48.720;9.118;2023-08-06T08:33:39;96071.06;;;13.87;85.94
79242;BME280;68670;48.720;9.118;2023-08-06T08:36:04;96071.41;;;13.70;86.79
79242;BME280;68670;48.720;9.118;2023-08-06T08:38:32;96077.44;;;13.77;89.34
79242;BME280;68670;48.720;9.118;2023-08-06T08:40:57;96072.50;;;13.74;86.94
79242;BME280;68670;48.720;9.118;2023-08-06T08:43:23;96067.00;;;13.74;87.21
79242;BME280;68670;48.720;9.118;2023-08-06T08:45:51;96068.78;;;13.99;87.51
79242;BME280;68670;48.720;9.118;2023-08-06T08:48:18;96074.47;;;14.12;84.98
79242;BME280;68670;48.720;9.118;2023-08-06T08:50:45;96081.81;;;13.83;86.26
79242;BME280;68670;48.720;9.118;2023-08-06T08:53:13;96076.63;;;13.76;87.88
79242;BME280;68670;48.720;9.118;2023-08-06T08:55:42;96095.09;;;13.66;87.82
79242;BME280;68670;48.720;9.118;2023-08-06T08:58:10;96087.38;;;13.68;87.97
79242;BME280;68670;48.720;9.118;2023-08-06T09:00:35;96083.59;;;13.59;89.60
79242;BME280;68670;48.720;9.118;2023-08-06T09:03:02;96087.72;;;13.56;89.39
79242;BME280;68670;48.720;9.118;2023-08-06T09:05:33;96071.41;;;13.70;90.08
79242;BME280;68670;48.720;9.118;2023-08-06T09:08:03;96077.91;;;13.94;89.03
79242;BME280;68670;48.720;9.118;2023-08-06T09:10:29;96078.72;;;13.95;87.25
79242;BME280;68670;48.720;9.118;2023-08-06T09:12:59;96072.25;;;14.15;86.67
79242;BME280;68670;48.720;9.118;2023-08-06T09:15:29;96077.72;;;14.25;85.44
79242;BME280;68670;48.720;9.118;2023-08-06T09:17:55;96085.03;;;14.39;84.81
79242;BME280;68670;48.720;9.118;2023-08-06T09:20:21;96084.19;;;14.44;84.90
79242;BME280;68670;48.720;9.118;2023-08-06T09:22:46;96087.44;;;14.51;83.96
79242;BME280;68670;48.720;9.118;2023-08-06T09:25:21;96067.13;;;14.42;84.46
79242;BME280;68670;48.720;9.118;2023-08-06T09:27:49;96076.34;;;14.61;85.78
79242;BME280;68670;48.720;9.118;2023-08-06T09:30:32;96083.31;;;14.83;83.35
79242;BME280;68670;48.720;9.118;2023-08-06T09:32:57;96100.81;;;14.97;83.54
79242;BME280;68670;48.720;9.118;2023-08-06T09:35:22;96102.13;;;14.75;82.19
79242;BME280;68670;48.720;9.118;2023-08-06T09:37:48;96099.38;;;14.75;83.91
79242;BME280;68670;48.720;9.118;2023-08-06T09:40:27;96094.19;;;14.69;83.22
79242;BME280;68670;48.720;9.118;2023-08-06T09:42:53;96096.06;;;14.73;84.72
79242;BME280;68670;48.720;9.118;2023-08-06T09:45:18;96096.41;;;14.67;82.97
79242;BME280;68670;48.720;9.118;2023-08-06T09:47:47;96095.09;;;14.59;83.71
79242;BME280;68670;48.720;9.118;2023-08-06T09:50:19;96097.38;;;14.52;83.95
79242;BME280;68670;48.720;9.118;2023-08-06T09:52:46;96105.31;;;14.59;84.40
79242;BME280;68670;48.720;9.118;2023-08-06T09:55:14;96095.69;;;14.56;84.63
79242;BME280;68670;48.720;9.118;2023-08-06T09:57:40;96098.50;;;14.46;85.12
79242;BME280;68670;48.720;9.118;2023-08-06T10:00:09;96115.09;;;14.31;85.81
79242;BME280;68670;48.720;9.118;2023-08-06T10:02:38;96096.44;;;14.23;86.52
79242;BME280;68670;48.720;9.118;2023-08-06T10:05:05;96104.00;;;14.02;88.25
79242;BME280;68670;48.720;9.118;2023-08-06T10:07:30;96103.84;;;13.83;89.53
79242;BME280;68670;48.720;9.118;2023-08-06T10:09:58;96108.81;;;13.76;91.54
79242;BME280;68670;48.720;9.118;2023-08-06T10:12:25;96119.84;;;13.71;92.68
79242;BME280;68670;48.720;9.118;2023-08-06T10:14:53;96120.38;;;13.73;91.17
79242;BME280;68670;48.720;9.118;2023-08-06T10:17:20;96111.09;;;13.64;89.29
79242;BME280;68670;48.720;9.118;2023-08-06T10:19:50;96118.47;;;13.68;89.68
79242;BME280;68670;48.720;9.118;2023-08-06T10:22:20;96120.66;;;13.76;91.27
79242;BME280;68670;48.720;9.118;2023-08-06T10:24:55;96135.81;;;13.69;91.84
79242;BME280;68670;48.720;9.118;2023-08-06T10:27:34;96127.59;;;13.64;92.55
79242;BME280;68670;48.720;9.118;2023-08-06T10:30:31;96127.53;;;13.74;94.20
79242;BME280;68670;48.720;9.118;2023-08-06T10:33:03;96134.41;;;13.82;92.79
79242;BME280;68670;48.720;9.118;2023-08-06T10:38:14;96134.72;;;13.70;91.33
79242;BME280;68670;48.720;9.118;2023-08-06T10:40:41;96129.81;;;13.62;92.92
79242;BME280;68670;48.720;9.118;2023-08-06T10:43:07;96130.41;;;13.49;90.71
79242;BME280;68670;48.720;9.118;2023-08-06T10:45:35;96131.47;;;13.63;93.65
79242;BME280;68670;48.720;9.118;2023-08-06T10:48:01;96135.50;;;13.81;93.03
79242;BME280;68670;48.720;9.118;2023-08-06T10:50:27;96137.38;;;13.90;91.35
79242;BME280;68670;48.720;9.118;2023-08-06T10:52:53;96129.94;;;13.96;90.90
79242;BME280;68670;48.720;9.118;2023-08-06T10:55:28;96151.13;;;13.95;90.86
79242;BME280;68670;48.720;9.118;2023-08-06T10:57:55;96137.81;;;14.12;88.34
79242;BME280;68670;48.720;9.118;2023-08-06T11:00:22;96147.69;;;14.19;87.98
79242;BME280;68670;48.720;9.118;2023-08-06T11:02:53;96143.16;;;14.38;87.46
79242;BME280;68670;48.720;9.118;2023-08-06T11:05:19;96145.94;;;14.33;89.30
79242;BME280;68670;48.720;9.118;2023-08-06T11:07:46;96149.03;;;14.26;87.58
79242;BME280;68670;48.720;9.118;2023-08-06T11:10:14;96153.22;;;14.13;88.37
79242;BME280;68670;48.720;9.118;2023-08-06T11:12:39;96153.84;;;14.00;88.51
79242;BME280;68670;48.720;9.118;2023-08-06T11:15:08;96155.53;;;13.96;89.82
79242;BME280;68670;48.720;9.118;2023-08-06T11:17:34;96167.41;;;13.87;87.83
79242;BME280;68670;48.720;9.118;2023-08-06T11:20:02;96168.53;;;13.75;88.93
79242;BME280;68670;48.720;9.118;2023-08-06T11:22:28;96173.22;;;13.70;85.51
79242;BME280;68670;48.720;9.118;2023-08-06T11:24:55;96192.81;;;13.63;87.54
79242;BME280;68670;48.720;9.118;2023-08-06T11:27:22;96182.56;;;13.79;88.08
79242;BME280;68670;48.720;9.118;2023-08-06T11:29:50;96185.50;;;13.98;84.99
79242;BME280;68670;48.720;9.118;2023-08-06T11:32:15;96188.59;;;13.91;85.01
79242;BME280;68670;48.720;9.118;2023-08-06T11:34:41;96193.56;;;13.84;82.58
79242;BME280;68670;48.720;9.118;2023-08-06T11:37:08;96183.94;;;13.82;82.93
79242;BME280;68670;48.720;9.118;2023-08-06T11:39:37;96192.47;;;13.80;81.63
79242;BME280;68670;48.720;9.118;2023-08-06T11:42:07;96187.53;;;13.77;82.61
79242;BME280;68670;48.720;9.118;2023-08-06T11:44:36;96199.06;;;13.84;82.78
79242;BME280;68670;48.720;9.118;2023-08-06T11:47:03;96196.34;;;13.79;83.75
79242;BME280;68670;48.720;9.118;2023-08-06T11:52:20;96210.66;;;13.71;81.76
79242;BME280;68670;48.720;9.118;2023-08-06T11:55:00;96212.91;;;13.64;80.47
79242;BME280;68670;48.720;9.118;2023-08-06T11:57:32;96208.53;;;13.53;79.87
79242;BME280;68670;48.720;9.118;2023-08-06T12:00:02;96226.13;;;13.47;81.77
79242;BME280;68670;48.720;9.118;2023-08-06T12:02:31;96217.06;;;13.46;80.53
79242;BME280;68670;48.720;9.118;2023-08-06T12:07:29;96216.75;;;13.63;80.77
79242;BME280;68670;48.720;9.118;2023-08-06T12:09:57;96221.16;;;13.64;79.76
79242;BME280;68670;48.720;9.118;2023-08-06T12:12:25;96227.72;;;13.73;80.20
79242;BME280;68670;48.720;9.118;2023-08-06T12:14:54;96235.38;;;13.96;80.17
79242;BME280;68670;48.720;9.118;2023-08-06T12:17:24;96240.56;;;14.03;79.21
79242;BME280;68670;48.720;9.118;2023-08-06T12:19:52;96238.91;;;14.02;77.84
79242;BME280;68670;48.720;9.118;2023-08-06T12:22:18;96236.47;;;13.95;78.37
79242;BME280;68670;48.720;9.118;2023-08-06T12:24:46;96253.56;;;13.87;77.80
79242;BME280;68670;48.720;9.118;2023-08-06T12:27:17;96245.84;;;13.89;77.38
79242;BME280;68670;48.720;9.118;2023-08-06T12:29:48;96237.59;;;13.94;77.90
79242;BME280;68670;48.720;9.118;2023-08-06T12:32:14;96241.38;;;14.08;77.34
79242;BME280;68670;48.720;9.118;2023-08-06T12:34:42;96244.13;;;14.13;76.14
79242;BME280;68670;48.720;9.118;2023-08-06T12:37:12;96248.91;;;14.52;76.29
79242;BME280;68670;48.720;9.118;2023-08-06T12:39:40;96238.59;;;14.73;73.93
79242;BME280;68670;48.720;9.118;2023-08-06T12:42:05;96245.16;;;15.21;71.94
79242;BME280;68670;48.720;9.118;2023-08-06T12:44:33;96241.34;;;15.12;71.79
79242;BME280;68670;48.720;9.118;2023-08-06T12:46:58;96253.59;;;14.96;73.84
79242;BME280;68670;48.720;9.118;2023-08-06T12:49:26;96243.28;;;14.72;74.70
79242;BME280;68670;48.720;9.118;2023-08-06T12:51:54;96246.63;;;14.64;75.69
79242;BME280;68670;48.720;9.118;2023-08-06T12:54:20;96262.13;;;14.60;75.23
79242;BME280;68670;48.720;9.118;2023-08-06T12:56:48;96272.66;;;14.43;75.21
79242;BME280;68670;48.720;9.118;2023-08-06T12:59:17;96283.94;;;14.36;75.17
79242;BME280;68670;48.720;9.118;2023-08-06T13:01:45;96273.81;;;14.27;74.35
79242;BME280;68670;48.720;9.118;2023-08-06T13:04:13;96278.25;;;14.23;74.27
79242;BME280;68670;48.720;9.118;2023-08-06T13:06:41;96284.56;;;14.23;74.76
79242;BME280;68670;48.720;9.118;2023-08-06T13:09:07;96278.69;;;14.40;74.07